Irene V — J8PS4 — position and weather

sailwx.info

Track history (hours):
 
Tides and Currents Weather Stations Pressure Air Temp Water Temp Dewpoint Dewpoint Depression Visibility Wind Speed Wind Dir Waves Ship Positions

Irene V

Last reported at 2016-Jun-26 11:33 UTC. Time now 2016-Jun-28 17:02 UTC.
Position N 17°47' W 063°05'.

Length 72 m; draft 5.7 m.

Type: Cargo ship. MMSI: 377924000.

Date/timePositionNaut miles runAvg speedWind from/ knotsBaromVisibWave heightAir tempDewpointWater temp
2016-Jun-26 11:33N 17°47' W 063°05'1111.2
2016-Jun-26 10:32N 17°58' W 063°03'3 0.2
2016-Jun-25 22:08N 18°00' W 063°03'0 0.0
2016-Jun-25 21:14N 18°00' W 063°03'0 0.0
2016-Jun-25 20:33N 18°00' W 063°03'0 0.0
2016-Jun-25 19:27N 18°00' W 063°03'0 0.0
2016-Jun-25 18:33N 18°00' W 063°03'0 0.0
2016-Jun-25 17:26N 18°00' W 063°03'0 0.0
2016-Jun-25 16:14N 18°00' W 063°03'0 0.0
2016-Jun-25 14:29N 18°00' W 063°03'1 0.2
2016-Jun-25 10:33N 18°00' W 063°04'5 4.6
2016-Jun-25 09:32N 17°55' W 063°04'7 6.5
2016-Jun-25 08:32N 17°49' W 063°04'74 7.4
2016-Jun-24 22:31N 16°41' W 062°33'  
2016-Jun-16 14:33N 10°32' W 061°52'9 9.1
2016-Jun-16 13:33N 10°40' W 061°48'8 7.3
2016-Jun-16 12:29N 10°47' W 061°52'  
Track history (hours):
 
Tides and Currents Weather Stations Pressure Air Temp Water Temp Dewpoint Dewpoint Depression Visibility Wind Speed Wind Dir Waves Ship Positions

Irene V

Last reported at 2016-Jun-26 11:33 UTC. Time now 2016-Jun-28 17:02 UTC.
Position N 17°47' W 063°05'.

Length 72 m; draft 5.7 m.

Type: Cargo ship. MMSI: 377924000.

Date/timePositionNaut miles runAvg speedWind from/ knotsBaromVisibWave heightAir tempDewpointWater temp
2016-Jun-26 11:33N 17°47' W 063°05'1111.2
2016-Jun-26 10:32N 17°58' W 063°03'3 0.2
2016-Jun-25 22:08N 18°00' W 063°03'0 0.0
2016-Jun-25 21:14N 18°00' W 063°03'0 0.0
2016-Jun-25 20:33N 18°00' W 063°03'0 0.0
2016-Jun-25 19:27N 18°00' W 063°03'0 0.0
2016-Jun-25 18:33N 18°00' W 063°03'0 0.0
2016-Jun-25 17:26N 18°00' W 063°03'0 0.0
2016-Jun-25 16:14N 18°00' W 063°03'0 0.0
2016-Jun-25 14:29N 18°00' W 063°03'1 0.2
2016-Jun-25 10:33N 18°00' W 063°04'5 4.6
2016-Jun-25 09:32N 17°55' W 063°04'7 6.5
2016-Jun-25 08:32N 17°49' W 063°04'74 7.4
2016-Jun-24 22:31N 16°41' W 062°33'  
2016-Jun-16 14:33N 10°32' W 061°52'9 9.1
2016-Jun-16 13:33N 10°40' W 061°48'8 7.3
2016-Jun-16 12:29N 10°47' W 061°52'  

Dump ship's entire track history